sensor_id;sensor_type;location;lat;lon;timestamp;temperature;humidity
6178;DHT22;3122;48.208;11.174;2022-12-07T00:03:02;2.00;1.00
6178;DHT22;3122;48.208;11.174;2022-12-07T00:08:02;2.00;1.00
6178;DHT22;3122;48.208;11.174;2022-12-07T00:13:03;2.00;1.00
6178;DHT22;3122;48.208;11.174;2022-12-07T00:18:03;2.00;1.00
6178;DHT22;3122;48.208;11.174;2022-12-07T00:23:04;1.90;1.00
6178;DHT22;3122;48.208;11.174;2022-12-07T00:28:04;1.90;1.00
6178;DHT22;3122;48.208;11.174;2022-12-07T00:33:05;1.90;1.00
6178;DHT22;3122;48.208;11.174;2022-12-07T00:38:06;1.90;1.00
6178;DHT22;3122;48.208;11.174;2022-12-07T00:43:06;1.80;1.00
6178;DHT22;3122;48.208;11.174;2022-12-07T00:48:07;1.90;1.00
6178;DHT22;3122;48.208;11.174;2022-12-07T00:53:07;1.80;1.00
6178;DHT22;3122;48.208;11.174;2022-12-07T00:58:08;1.90;1.00
6178;DHT22;3122;48.208;11.174;2022-12-07T01:03:11;1.90;1.00
6178;DHT22;3122;48.208;11.174;2022-12-07T01:08:11;1.80;1.00
6178;DHT22;3122;48.208;11.174;2022-12-07T01:13:12;1.80;1.00
6178;DHT22;3122;48.208;11.174;2022-12-07T01:18:13;1.70;1.00
6178;DHT22;3122;48.208;11.174;2022-12-07T01:23:13;1.70;1.00
6178;DHT22;3122;48.208;11.174;2022-12-07T01:28:14;1.80;1.00
6178;DHT22;3122;48.208;11.174;2022-12-07T01:33:14;1.70;1.00
6178;DHT22;3122;48.208;11.174;2022-12-07T01:38:15;1.70;1.00
6178;DHT22;3122;48.208;11.174;2022-12-07T01:43:19;1.70;1.00
6178;DHT22;3122;48.208;11.174;2022-12-07T01:48:34;1.70;1.00
6178;DHT22;3122;48.208;11.174;2022-12-07T01:53:38;1.80;1.00
6178;DHT22;3122;48.208;11.174;2022-12-07T01:58:40;1.80;1.00
6178;DHT22;3122;48.208;11.174;2022-12-07T02:03:43;1.80;1.00
6178;DHT22;3122;48.208;11.174;2022-12-07T02:08:44;1.80;1.00
6178;DHT22;3122;48.208;11.174;2022-12-07T02:13:46;1.80;1.00
6178;DHT22;3122;48.208;11.174;2022-12-07T02:29:50;1.80;1.00
6178;DHT22;3122;48.208;11.174;2022-12-07T02:34:55;1.80;1.00
6178;DHT22;3122;48.208;11.174;2022-12-07T02:40:02;1.80;1.00
6178;DHT22;3122;48.208;11.174;2022-12-07T02:45:05;1.80;1.00
6178;DHT22;3122;48.208;11.174;2022-12-07T02:50:07;1.80;1.00
6178;DHT22;3122;48.208;11.174;2022-12-07T02:55:08;1.80;1.00
6178;DHT22;3122;48.208;11.174;2022-12-07T03:00:11;1.80;1.00
6178;DHT22;3122;48.208;11.174;2022-12-07T03:06:00;1.80;1.00
6178;DHT22;3122;48.208;11.174;2022-12-07T03:11:06;1.70;1.00
6178;DHT22;3122;48.208;11.174;2022-12-07T03:21:59;1.70;1.00
6178;DHT22;3122;48.208;11.174;2022-12-07T03:27:08;1.70;1.00
6178;DHT22;3122;48.208;11.174;2022-12-07T03:32:30;1.70;1.00
6178;DHT22;3122;48.208;11.174;2022-12-07T03:37:40;1.60;1.00
6178;DHT22;3122;48.208;11.174;2022-12-07T03:42:42;1.50;1.00
6178;DHT22;3122;48.208;11.174;2022-12-07T03:47:47;1.60;1.00
6178;DHT22;3122;48.208;11.174;2022-12-07T03:53:14;1.60;1.00
6178;DHT22;3122;48.208;11.174;2022-12-07T03:58:19;1.60;1.00
6178;DHT22;3122;48.208;11.174;2022-12-07T04:03:20;1.50;1.00
6178;DHT22;3122;48.208;11.174;2022-12-07T04:08:21;1.60;1.00
6178;DHT22;3122;48.208;11.174;2022-12-07T04:13:22;1.70;1.00
6178;DHT22;3122;48.208;11.174;2022-12-07T04:18:22;1.70;1.00
6178;DHT22;3122;48.208;11.174;2022-12-07T04:23:23;1.60;1.00
6178;DHT22;3122;48.208;11.174;2022-12-07T04:28:23;1.70;1.00
6178;DHT22;3122;48.208;11.174;2022-12-07T04:33:24;1.60;1.00
6178;DHT22;3122;48.208;11.174;2022-12-07T04:38:24;1.50;1.00
6178;DHT22;3122;48.208;11.174;2022-12-07T04:43:25;1.60;1.00
6178;DHT22;3122;48.208;11.174;2022-12-07T04:48:25;1.60;1.00
6178;DHT22;3122;48.208;11.174;2022-12-07T04:53:26;1.60;1.00
6178;DHT22;3122;48.208;11.174;2022-12-07T04:58:27;1.50;1.00
6178;DHT22;3122;48.208;11.174;2022-12-07T05:03:27;1.40;1.00
6178;DHT22;3122;48.208;11.174;2022-12-07T05:08:28;1.30;1.00
6178;DHT22;3122;48.208;11.174;2022-12-07T05:13:28;1.40;1.00
6178;DHT22;3122;48.208;11.174;2022-12-07T05:18:29;1.40;1.00
6178;DHT22;3122;48.208;11.174;2022-12-07T05:23:29;1.40;1.00
6178;DHT22;3122;48.208;11.174;2022-12-07T05:28:30;1.30;1.00
6178;DHT22;3122;48.208;11.174;2022-12-07T05:33:31;1.20;1.00
6178;DHT22;3122;48.208;11.174;2022-12-07T05:38:32;1.30;1.00
6178;DHT22;3122;48.208;11.174;2022-12-07T05:43:33;1.30;1.00
6178;DHT22;3122;48.208;11.174;2022-12-07T05:48:33;1.30;1.00
6178;DHT22;3122;48.208;11.174;2022-12-07T05:53:35;1.30;1.00
6178;DHT22;3122;48.208;11.174;2022-12-07T05:58:36;1.30;1.00
6178;DHT22;3122;48.208;11.174;2022-12-07T06:03:55;1.40;1.00
6178;DHT22;3122;48.208;11.174;2022-12-07T06:08:55;1.40;1.00
6178;DHT22;3122;48.208;11.174;2022-12-07T06:13:56;1.30;1.00
6178;DHT22;3122;48.208;11.174;2022-12-07T06:18:56;1.40;1.00
6178;DHT22;3122;48.208;11.174;2022-12-07T06:23:57;1.30;1.00
6178;DHT22;3122;48.208;11.174;2022-12-07T06:28:58;1.40;1.00
6178;DHT22;3122;48.208;11.174;2022-12-07T06:33:59;1.30;1.00
6178;DHT22;3122;48.208;11.174;2022-12-07T06:39:00;1.30;1.00
6178;DHT22;3122;48.208;11.174;2022-12-07T06:44:01;1.40;1.00
6178;DHT22;3122;48.208;11.174;2022-12-07T06:49:03;1.20;1.00
6178;DHT22;3122;48.208;11.174;2022-12-07T06:54:04;1.20;1.00
6178;DHT22;3122;48.208;11.174;2022-12-07T06:59:06;1.30;1.00
6178;DHT22;3122;48.208;11.174;2022-12-07T07:04:06;1.30;1.00
6178;DHT22;3122;48.208;11.174;2022-12-07T07:09:07;1.30;1.00
6178;DHT22;3122;48.208;11.174;2022-12-07T07:14:09;1.40;1.00
6178;DHT22;3122;48.208;11.174;2022-12-07T07:19:10;1.40;1.00
6178;DHT22;3122;48.208;11.174;2022-12-07T07:24:10;1.30;1.00
6178;DHT22;3122;48.208;11.174;2022-12-07T07:29:11;1.40;1.00
6178;DHT22;3122;48.208;11.174;2022-12-07T07:34:11;1.40;1.00
6178;DHT22;3122;48.208;11.174;2022-12-07T07:39:12;1.50;1.00
6178;DHT22;3122;48.208;11.174;2022-12-07T07:44:13;1.50;1.00
6178;DHT22;3122;48.208;11.174;2022-12-07T07:49:13;1.50;1.00
6178;DHT22;3122;48.208;11.174;2022-12-07T07:54:14;1.60;1.00
6178;DHT22;3122;48.208;11.174;2022-12-07T07:59:15;1.60;1.00
6178;DHT22;3122;48.208;11.174;2022-12-07T08:04:16;1.60;1.00
6178;DHT22;3122;48.208;11.174;2022-12-07T08:09:16;1.60;1.00
6178;DHT22;3122;48.208;11.174;2022-12-07T08:14:17;1.60;1.00
6178;DHT22;3122;48.208;11.174;2022-12-07T08:19:17;1.60;1.00
6178;DHT22;3122;48.208;11.174;2022-12-07T08:24:18;1.70;1.00
6178;DHT22;3122;48.208;11.174;2022-12-07T08:29:18;1.70;1.00
6178;DHT22;3122;48.208;11.174;2022-12-07T08:34:19;1.70;1.00
6178;DHT22;3122;48.208;11.174;2022-12-07T08:39:20;1.80;1.00
6178;DHT22;3122;48.208;11.174;2022-12-07T08:44:20;1.80;1.00
6178;DHT22;3122;48.208;11.174;2022-12-07T08:49:27;1.90;1.00
6178;DHT22;3122;48.208;11.174;2022-12-07T08:54:34;1.90;1.00
6178;DHT22;3122;48.208;11.174;2022-12-07T08:59:37;1.90;1.00
6178;DHT22;3122;48.208;11.174;2022-12-07T09:04:38;2.00;1.00
6178;DHT22;3122;48.208;11.174;2022-12-07T09:09:38;2.00;1.00
6178;DHT22;3122;48.208;11.174;2022-12-07T09:14:39;2.10;1.00
6178;DHT22;3122;48.208;11.174;2022-12-07T09:19:39;2.20;1.00
6178;DHT22;3122;48.208;11.174;2022-12-07T09:24:41;2.20;1.00
6178;DHT22;3122;48.208;11.174;2022-12-07T09:29:42;2.20;1.00
6178;DHT22;3122;48.208;11.174;2022-12-07T09:34:42;2.30;1.00
6178;DHT22;3122;48.208;11.174;2022-12-07T09:39:43;2.30;1.00
6178;DHT22;3122;48.208;11.174;2022-12-07T09:44:44;2.30;1.00
6178;DHT22;3122;48.208;11.174;2022-12-07T09:49:44;2.30;1.00
6178;DHT22;3122;48.208;11.174;2022-12-07T09:54:47;2.40;1.00
6178;DHT22;3122;48.208;11.174;2022-12-07T09:59:48;2.40;1.00
6178;DHT22;3122;48.208;11.174;2022-12-07T10:04:49;2.50;1.00
6178;DHT22;3122;48.208;11.174;2022-12-07T10:09:49;2.50;1.00
6178;DHT22;3122;48.208;11.174;2022-12-07T10:15:02;2.50;1.00
6178;DHT22;3122;48.208;11.174;2022-12-07T10:20:17;2.50;1.00
6178;DHT22;3122;48.208;11.174;2022-12-07T10:25:20;2.60;1.00
6178;DHT22;3122;48.208;11.174;2022-12-07T10:30:20;2.80;1.00
6178;DHT22;3122;48.208;11.174;2022-12-07T10:40:35;2.90;1.00
6178;DHT22;3122;48.208;11.174;2022-12-07T10:51:06;3.10;1.00
6178;DHT22;3122;48.208;11.174;2022-12-07T11:01:57;2.90;1.00
6178;DHT22;3122;48.208;11.174;2022-12-07T11:07:13;3.00;1.00
6178;DHT22;3122;48.208;11.174;2022-12-07T11:18:11;2.90;1.00
6178;DHT22;3122;48.208;11.174;2022-12-07T11:33:45;3.10;1.00
6178;DHT22;3122;48.208;11.174;2022-12-07T11:38:53;3.00;1.00
6178;DHT22;3122;48.208;11.174;2022-12-07T11:43:57;3.00;1.00
6178;DHT22;3122;48.208;11.174;2022-12-07T11:49:07;2.90;1.00
6178;DHT22;3122;48.208;11.174;2022-12-07T11:54:34;3.10;1.00
6178;DHT22;3122;48.208;11.174;2022-12-07T11:59:50;3.20;1.00
6178;DHT22;3122;48.208;11.174;2022-12-07T12:10:20;3.20;1.00
6178;DHT22;3122;48.208;11.174;2022-12-07T12:21:04;3.10;1.00
6178;DHT22;3122;48.208;11.174;2022-12-07T12:26:08;3.10;1.00
6178;DHT22;3122;48.208;11.174;2022-12-07T12:36:45;3.10;1.00
6178;DHT22;3122;48.208;11.174;2022-12-07T12:52:46;3.80;1.00
6178;DHT22;3122;48.208;11.174;2022-12-07T12:58:50;3.70;1.00
6178;DHT22;3122;48.208;11.174;2022-12-07T13:03:32;3.70;1.00
6178;DHT22;3122;48.208;11.174;2022-12-07T13:08:35;3.80;1.00
6178;DHT22;3122;48.208;11.174;2022-12-07T13:13:36;3.80;1.00
6178;DHT22;3122;48.208;11.174;2022-12-07T13:18:37;3.90;1.00
6178;DHT22;3122;48.208;11.174;2022-12-07T13:28:52;3.90;1.00
6178;DHT22;3122;48.208;11.174;2022-12-07T13:33:53;4.00;1.00
6178;DHT22;3122;48.208;11.174;2022-12-07T13:38:58;3.90;1.00
6178;DHT22;3122;48.208;11.174;2022-12-07T13:44:07;3.80;1.00
6178;DHT22;3122;48.208;11.174;2022-12-07T13:49:29;3.70;1.00
6178;DHT22;3122;48.208;11.174;2022-12-07T13:54:30;3.90;1.00
6178;DHT22;3122;48.208;11.174;2022-12-07T13:59:31;3.80;1.00
6178;DHT22;3122;48.208;11.174;2022-12-07T14:04:37;3.80;1.00
6178;DHT22;3122;48.208;11.174;2022-12-07T14:09:38;3.60;1.00
6178;DHT22;3122;48.208;11.174;2022-12-07T14:14:38;3.60;1.00
6178;DHT22;3122;48.208;11.174;2022-12-07T14:19:48;3.50;1.00
6178;DHT22;3122;48.208;11.174;2022-12-07T14:24:49;3.30;1.00
6178;DHT22;3122;48.208;11.174;2022-12-07T14:29:50;3.30;1.00
6178;DHT22;3122;48.208;11.174;2022-12-07T14:34:56;3.20;1.00
6178;DHT22;3122;48.208;11.174;2022-12-07T14:39:57;3.10;1.00
6178;DHT22;3122;48.208;11.174;2022-12-07T14:44:58;3.10;1.00
6178;DHT22;3122;48.208;11.174;2022-12-07T14:49:58;3.10;1.00
6178;DHT22;3122;48.208;11.174;2022-12-07T14:54:59;3.10;1.00
6178;DHT22;3122;48.208;11.174;2022-12-07T14:59:59;3.10;1.00
6178;DHT22;3122;48.208;11.174;2022-12-07T15:05:00;3.10;1.00
6178;DHT22;3122;48.208;11.174;2022-12-07T15:10:00;3.10;1.00
6178;DHT22;3122;48.208;11.174;2022-12-07T15:15:01;3.10;1.00
6178;DHT22;3122;48.208;11.174;2022-12-07T15:20:02;3.00;1.00
6178;DHT22;3122;48.208;11.174;2022-12-07T15:25:04;2.90;1.00
6178;DHT22;3122;48.208;11.174;2022-12-07T15:30:06;2.90;1.00
6178;DHT22;3122;48.208;11.174;2022-12-07T15:35:07;2.90;1.00
6178;DHT22;3122;48.208;11.174;2022-12-07T15:40:08;2.90;1.00
6178;DHT22;3122;48.208;11.174;2022-12-07T15:45:10;2.80;1.00
6178;DHT22;3122;48.208;11.174;2022-12-07T15:50:14;2.80;1.00
6178;DHT22;3122;48.208;11.174;2022-12-07T15:55:14;2.70;1.00
6178;DHT22;3122;48.208;11.174;2022-12-07T16:00:15;2.70;1.00
6178;DHT22;3122;48.208;11.174;2022-12-07T16:05:16;2.70;1.00
6178;DHT22;3122;48.208;11.174;2022-12-07T16:10:16;2.70;1.00
6178;DHT22;3122;48.208;11.174;2022-12-07T16:15:17;2.60;1.00
6178;DHT22;3122;48.208;11.174;2022-12-07T16:20:17;2.50;1.00
6178;DHT22;3122;48.208;11.174;2022-12-07T16:25:18;2.40;1.00
6178;DHT22;3122;48.208;11.174;2022-12-07T16:30:19;2.40;1.00
6178;DHT22;3122;48.208;11.174;2022-12-07T16:35:19;2.40;1.00
6178;DHT22;3122;48.208;11.174;2022-12-07T16:40:20;2.30;1.00
6178;DHT22;3122;48.208;11.174;2022-12-07T16:45:21;2.30;1.00
6178;DHT22;3122;48.208;11.174;2022-12-07T16:50:21;2.30;1.00
6178;DHT22;3122;48.208;11.174;2022-12-07T16:55:22;2.10;1.00
6178;DHT22;3122;48.208;11.174;2022-12-07T17:00:22;2.00;1.00
6178;DHT22;3122;48.208;11.174;2022-12-07T17:05:23;1.90;1.00
6178;DHT22;3122;48.208;11.174;2022-12-07T17:10:25;1.80;1.00
6178;DHT22;3122;48.208;11.174;2022-12-07T17:15:25;1.80;1.00
6178;DHT22;3122;48.208;11.174;2022-12-07T17:20:27;1.70;1.00
6178;DHT22;3122;48.208;11.174;2022-12-07T17:25:27;1.60;1.00
6178;DHT22;3122;48.208;11.174;2022-12-07T17:30:28;1.50;1.00
6178;DHT22;3122;48.208;11.174;2022-12-07T17:35:29;1.40;1.00
6178;DHT22;3122;48.208;11.174;2022-12-07T17:40:29;1.40;1.00
6178;DHT22;3122;48.208;11.174;2022-12-07T17:45:30;1.30;1.00
6178;DHT22;3122;48.208;11.174;2022-12-07T17:50:31;1.20;1.00
6178;DHT22;3122;48.208;11.174;2022-12-07T17:55:52;1.10;1.00
6178;DHT22;3122;48.208;11.174;2022-12-07T18:00:53;1.00;1.00
6178;DHT22;3122;48.208;11.174;2022-12-07T18:05:54;1.00;1.00
6178;DHT22;3122;48.208;11.174;2022-12-07T18:11:01;0.90;1.00
6178;DHT22;3122;48.208;11.174;2022-12-07T18:16:03;0.90;1.00
6178;DHT22;3122;48.208;11.174;2022-12-07T18:21:07;0.90;1.00
6178;DHT22;3122;48.208;11.174;2022-12-07T18:26:08;0.80;1.00
6178;DHT22;3122;48.208;11.174;2022-12-07T18:31:09;0.80;1.00
6178;DHT22;3122;48.208;11.174;2022-12-07T18:36:09;0.80;1.00
6178;DHT22;3122;48.208;11.174;2022-12-07T18:41:12;0.80;1.00
6178;DHT22;3122;48.208;11.174;2022-12-07T18:46:17;0.70;1.00
6178;DHT22;3122;48.208;11.174;2022-12-07T18:51:18;0.70;1.00
6178;DHT22;3122;48.208;11.174;2022-12-07T18:56:21;0.70;1.00
6178;DHT22;3122;48.208;11.174;2022-12-07T19:01:22;0.70;1.00
6178;DHT22;3122;48.208;11.174;2022-12-07T19:06:23;0.60;1.00
6178;DHT22;3122;48.208;11.174;2022-12-07T19:11:29;0.70;1.00
6178;DHT22;3122;48.208;11.174;2022-12-07T19:16:51;0.60;1.00
6178;DHT22;3122;48.208;11.174;2022-12-07T19:21:51;0.60;1.00
6178;DHT22;3122;48.208;11.174;2022-12-07T19:26:52;0.70;1.00
6178;DHT22;3122;48.208;11.174;2022-12-07T19:31:53;0.70;1.00
6178;DHT22;3122;48.208;11.174;2022-12-07T19:36:53;0.70;1.00
6178;DHT22;3122;48.208;11.174;2022-12-07T19:41:55;0.70;1.00
6178;DHT22;3122;48.208;11.174;2022-12-07T19:46:57;0.70;1.00
6178;DHT22;3122;48.208;11.174;2022-12-07T19:52:01;0.70;1.00
6178;DHT22;3122;48.208;11.174;2022-12-07T19:57:05;0.60;1.00
6178;DHT22;3122;48.208;11.174;2022-12-07T20:02:10;0.60;1.00
6178;DHT22;3122;48.208;11.174;2022-12-07T20:07:11;0.60;1.00
6178;DHT22;3122;48.208;11.174;2022-12-07T20:12:12;0.50;1.00
6178;DHT22;3122;48.208;11.174;2022-12-07T20:17:32;0.50;1.00
6178;DHT22;3122;48.208;11.174;2022-12-07T20:22:32;0.50;1.00
6178;DHT22;3122;48.208;11.174;2022-12-07T20:27:33;0.50;1.00
6178;DHT22;3122;48.208;11.174;2022-12-07T20:32:33;0.40;1.00
6178;DHT22;3122;48.208;11.174;2022-12-07T20:37:34;0.40;1.00
6178;DHT22;3122;48.208;11.174;2022-12-07T20:42:34;0.60;1.00
6178;DHT22;3122;48.208;11.174;2022-12-07T20:47:38;0.80;1.00
6178;DHT22;3122;48.208;11.174;2022-12-07T20:52:38;0.60;1.00
6178;DHT22;3122;48.208;11.174;2022-12-07T20:57:39;0.70;1.00
6178;DHT22;3122;48.208;11.174;2022-12-07T21:02:39;0.70;1.00
6178;DHT22;3122;48.208;11.174;2022-12-07T21:07:40;0.80;1.00
6178;DHT22;3122;48.208;11.174;2022-12-07T21:12:41;0.70;1.00
6178;DHT22;3122;48.208;11.174;2022-12-07T21:17:41;0.70;1.00
6178;DHT22;3122;48.208;11.174;2022-12-07T21:22:42;0.70;1.00
6178;DHT22;3122;48.208;11.174;2022-12-07T21:27:42;0.70;1.00
6178;DHT22;3122;48.208;11.174;2022-12-07T21:32:43;0.70;1.00
6178;DHT22;3122;48.208;11.174;2022-12-07T21:37:44;0.70;1.00
6178;DHT22;3122;48.208;11.174;2022-12-07T21:42:44;0.70;1.00
6178;DHT22;3122;48.208;11.174;2022-12-07T21:47:45;0.80;1.00
6178;DHT22;3122;48.208;11.174;2022-12-07T21:52:45;0.80;1.00
6178;DHT22;3122;48.208;11.174;2022-12-07T21:57:46;0.80;1.00
6178;DHT22;3122;48.208;11.174;2022-12-07T22:02:46;0.70;1.00
6178;DHT22;3122;48.208;11.174;2022-12-07T22:07:47;0.70;1.00
6178;DHT22;3122;48.208;11.174;2022-12-07T22:12:47;0.70;1.00
6178;DHT22;3122;48.208;11.174;2022-12-07T22:17:48;0.70;1.00
6178;DHT22;3122;48.208;11.174;2022-12-07T22:22:49;0.70;1.00
6178;DHT22;3122;48.208;11.174;2022-12-07T22:27:50;0.70;1.00
6178;DHT22;3122;48.208;11.174;2022-12-07T22:32:50;0.70;1.00
6178;DHT22;3122;48.208;11.174;2022-12-07T22:37:51;0.70;1.00
6178;DHT22;3122;48.208;11.174;2022-12-07T22:42:52;0.70;1.00
6178;DHT22;3122;48.208;11.174;2022-12-07T22:47:52;0.70;1.00
6178;DHT22;3122;48.208;11.174;2022-12-07T22:52:53;0.70;1.00
6178;DHT22;3122;48.208;11.174;2022-12-07T22:57:54;0.60;1.00
6178;DHT22;3122;48.208;11.174;2022-12-07T23:02:54;0.70;1.00
6178;DHT22;3122;48.208;11.174;2022-12-07T23:07:55;0.60;1.00
6178;DHT22;3122;48.208;11.174;2022-12-07T23:12:56;0.70;1.00
6178;DHT22;3122;48.208;11.174;2022-12-07T23:18:14;0.70;1.00
6178;DHT22;3122;48.208;11.174;2022-12-07T23:23:15;0.50;1.00
6178;DHT22;3122;48.208;11.174;2022-12-07T23:28:16;0.60;1.00
6178;DHT22;3122;48.208;11.174;2022-12-07T23:33:17;0.60;1.00
6178;DHT22;3122;48.208;11.174;2022-12-07T23:38:17;0.60;1.00
6178;DHT22;3122;48.208;11.174;2022-12-07T23:43:18;0.60;1.00
6178;DHT22;3122;48.208;11.174;2022-12-07T23:48:18;0.60;1.00
6178;DHT22;3122;48.208;11.174;2022-12-07T23:53:19;0.70;1.00
6178;DHT22;3122;48.208;11.174;2022-12-07T23:58:19;0.70;1.00
